createdAt,value
2023-05-21T00:07:09.820Z,13.97
2023-05-21T00:14:28.362Z,13.95
2023-05-21T00:21:48.753Z,13.93
2023-05-21T00:29:07.111Z,13.81
2023-05-21T00:36:25.613Z,13.60
2023-05-21T00:43:45.446Z,13.47
2023-05-21T00:51:03.889Z,13.27
2023-05-21T00:58:22.311Z,13.42
2023-05-21T01:05:45.345Z,13.37
2023-05-21T01:13:04.080Z,13.47
2023-05-21T01:20:25.052Z,13.47
2023-05-21T01:27:44.958Z,13.35
2023-05-21T01:35:06.259Z,13.35
2023-05-21T01:42:25.526Z,13.27
2023-05-21T01:49:45.458Z,13.25
2023-05-21T01:57:04.079Z,13.14
2023-05-21T02:04:22.698Z,13.12
2023-05-21T02:11:42.468Z,13.09
2023-05-21T02:19:00.991Z,12.91
2023-05-21T02:26:19.462Z,12.83
2023-05-21T02:33:41.429Z,12.74
2023-05-21T02:41:02.420Z,12.69
2023-05-21T02:48:24.466Z,12.68
2023-05-21T02:55:44.172Z,12.59
2023-05-21T03:03:03.376Z,12.63
2023-05-21T03:10:21.833Z,12.62
2023-05-21T03:17:42.406Z,12.72
2023-05-21T03:25:01.942Z,12.88
2023-05-21T03:32:20.507Z,12.92
2023-05-21T03:39:45.559Z,13.06
2023-05-21T03:47:04.382Z,13.15
2023-05-21T03:54:26.615Z,13.33
2023-05-21T04:01:50.298Z,13.54
2023-05-21T04:09:09.126Z,13.78
2023-05-21T04:16:27.958Z,13.82
2023-05-21T04:23:47.726Z,14.04
2023-05-21T04:31:15.863Z,14.43
2023-05-21T04:38:34.915Z,14.78
2023-05-21T04:45:58.690Z,16.33
2023-05-21T04:53:17.083Z,17.66
2023-05-21T05:00:37.942Z,17.83
2023-05-21T05:08:00.757Z,18.18
2023-05-21T05:15:19.090Z,18.86
2023-05-21T05:22:38.414Z,18.47
2023-05-21T05:29:58.200Z,18.17
2023-05-21T05:37:16.703Z,18.12
2023-05-21T05:44:35.453Z,18.41
2023-05-21T05:51:55.281Z,18.56
2023-05-21T05:59:13.790Z,18.81
2023-05-21T06:06:38.908Z,19.47
2023-05-21T06:14:03.658Z,20.43
2023-05-21T06:21:22.041Z,20.37
2023-05-21T06:28:40.453Z,20.56
2023-05-21T06:36:02.670Z,21.11
2023-05-21T06:43:21.788Z,22.15
2023-05-21T06:50:58.589Z,21.66
2023-05-21T06:58:19.926Z,21.92
2023-05-21T07:05:39.185Z,22.00
2023-05-21T07:12:58.214Z,22.02
2023-05-21T07:20:18.123Z,22.99
2023-05-21T07:27:39.610Z,23.05
2023-05-21T07:34:57.860Z,24.04
2023-05-21T07:42:19.440Z,24.37
2023-05-21T07:49:37.732Z,24.02
2023-05-21T07:56:55.869Z,24.27
2023-05-21T08:04:35.358Z,24.97
2023-05-21T08:11:53.946Z,25.23
2023-05-21T08:19:12.609Z,24.98
2023-05-21T08:26:32.665Z,25.06
2023-05-21T08:33:56.558Z,25.57
2023-05-21T08:41:27.606Z,26.12
2023-05-21T08:48:48.352Z,25.99
2023-05-21T08:56:07.005Z,26.41
2023-05-21T09:03:33.889Z,26.14
2023-05-21T09:10:53.823Z,25.76
2023-05-21T09:18:16.402Z,25.65
2023-05-21T09:25:58.867Z,25.34
2023-05-21T09:33:26.630Z,26.12
2023-05-21T09:40:56.383Z,25.84
2023-05-21T09:48:17.346Z,25.64
2023-05-21T09:55:37.716Z,26.08
2023-05-21T10:02:57.237Z,26.73
2023-05-21T10:10:17.336Z,26.86
2023-05-21T10:17:35.966Z,26.71
2023-05-21T10:24:54.763Z,27.09
2023-05-21T10:32:17.165Z,27.38
2023-05-21T10:39:35.778Z,27.37
2023-05-21T10:47:23.662Z,26.55
2023-05-21T10:54:57.589Z,27.02
2023-05-21T11:02:16.799Z,26.51
2023-05-21T11:09:35.093Z,26.31
2023-05-21T11:16:54.753Z,26.46
2023-05-21T11:24:20.482Z,26.32
2023-05-21T11:31:41.628Z,26.24
2023-05-21T11:39:12.125Z,26.72
2023-05-21T11:46:31.211Z,26.68
2023-05-21T11:53:50.478Z,26.59
2023-05-21T12:01:09.963Z,26.90
2023-05-21T12:08:29.102Z,26.76
2023-05-21T12:15:48.940Z,26.44
2023-05-21T12:23:08.625Z,26.39
2023-05-21T12:30:27.714Z,26.44
2023-05-21T12:37:45.914Z,26.27
2023-05-21T12:45:09.152Z,26.17
2023-05-21T12:52:28.753Z,26.08
2023-05-21T12:59:49.093Z,26.30
2023-05-21T13:07:08.835Z,26.02
2023-05-21T13:14:27.122Z,26.09
2023-05-21T13:21:45.301Z,25.76
2023-05-21T13:29:04.767Z,25.66
2023-05-21T13:36:22.903Z,25.40
2023-05-21T13:43:43.513Z,25.85
2023-05-21T13:51:03.140Z,25.85
2023-05-21T13:58:21.424Z,25.84
2023-05-21T14:05:39.755Z,25.72
2023-05-21T14:13:07.795Z,25.61
2023-05-21T14:20:37.735Z,25.24
2023-05-21T14:27:55.963Z,24.95
2023-05-21T14:35:15.587Z,24.94
2023-05-21T14:42:33.640Z,25.14
2023-05-21T14:49:52.124Z,25.12
2023-05-21T14:57:11.643Z,24.79
2023-05-21T15:04:29.783Z,25.06
2023-05-21T15:11:52.673Z,24.94
2023-05-21T15:19:12.422Z,25.24
2023-05-21T15:26:30.641Z,25.35
2023-05-21T15:33:49.197Z,25.30
2023-05-21T15:41:08.892Z,25.12
2023-05-21T15:48:27.121Z,24.73
2023-05-21T15:55:45.496Z,24.74
2023-05-21T16:03:05.272Z,24.67
2023-05-21T16:10:23.930Z,24.36
2023-05-21T16:17:42.144Z,24.30
2023-05-21T16:25:01.660Z,24.26
2023-05-21T16:32:20.132Z,24.16
2023-05-21T16:39:38.570Z,24.03
2023-05-21T16:46:58.261Z,23.83
2023-05-21T16:54:16.571Z,23.66
2023-05-21T17:01:35.041Z,23.45
2023-05-21T17:08:55.041Z,23.43
2023-05-21T17:16:13.724Z,23.25
2023-05-21T17:23:32.299Z,23.03
2023-05-21T17:30:52.038Z,22.81
2023-05-21T17:38:10.565Z,22.61
2023-05-21T17:45:28.879Z,22.40
2023-05-21T17:52:48.642Z,22.39
2023-05-21T18:00:08.706Z,22.23
2023-05-21T18:07:33.017Z,21.97
2023-05-21T18:14:52.969Z,21.75
2023-05-21T18:22:12.228Z,21.64
2023-05-21T18:29:31.531Z,21.34
2023-05-21T18:36:54.254Z,21.15
2023-05-21T18:44:12.628Z,21.05
2023-05-21T18:51:31.737Z,20.76
2023-05-21T18:58:51.482Z,20.65
2023-05-21T19:06:10.121Z,20.38
2023-05-21T19:13:28.315Z,20.29
2023-05-21T19:20:48.181Z,20.26
2023-05-21T19:28:06.310Z,19.93
2023-05-21T19:35:24.757Z,19.73
2023-05-21T19:42:44.658Z,19.42
2023-05-21T19:50:02.882Z,19.31
2023-05-21T19:57:21.268Z,19.18
2023-05-21T20:04:41.201Z,18.84
2023-05-21T20:11:59.580Z,18.47
2023-05-21T20:19:18.084Z,18.38
2023-05-21T20:26:37.755Z,18.21
2023-05-21T20:33:56.044Z,18.14
2023-05-21T20:41:14.646Z,17.97
2023-05-21T20:48:35.363Z,17.87
2023-05-21T20:55:55.049Z,17.61
2023-05-21T21:03:13.488Z,17.46
2023-05-21T21:10:34.019Z,17.48
2023-05-21T21:17:52.369Z,17.49
2023-05-21T21:25:11.242Z,17.45
2023-05-21T21:32:30.834Z,17.50
2023-05-21T21:39:49.031Z,17.42
2023-05-21T21:47:07.680Z,17.25
2023-05-21T21:54:28.016Z,17.08
2023-05-21T22:01:46.620Z,16.78
2023-05-21T22:09:05.042Z,16.59
2023-05-21T22:16:25.406Z,16.56
2023-05-21T22:23:43.895Z,16.29
2023-05-21T22:31:02.328Z,16.13
2023-05-21T22:38:22.329Z,15.86
2023-05-21T22:45:40.861Z,15.70
2023-05-21T22:52:59.134Z,15.62
2023-05-21T23:00:20.928Z,15.52
2023-05-21T23:07:39.219Z,15.38
2023-05-21T23:14:57.513Z,15.39
2023-05-21T23:22:17.339Z,15.39
2023-05-21T23:29:35.585Z,15.22
2023-05-21T23:36:53.841Z,15.15
2023-05-21T23:44:13.587Z,15.20
2023-05-21T23:51:31.971Z,15.06
2023-05-21T23:58:50.252Z,15.03
